Time;durP1;ratioP1;P1;durP2;ratioP2;P2;SDS_P1;SDS_P2;PMS_P1;PMS_P2;Temp;Humidity;BMP_temperature;BMP_pressure;BME280_temperature;BME280_humidity;BME280_pressure;Samples;Min_cycle;Max_cycle;Signal;HPM_P1;HPM_P2
2021/05/15 00:01:27;;;;;;;4.15;3.00;;;7.40;99.90;;;;;;5071789;28;20028;-57
2021/05/15 00:03:52;;;;;;;5.00;2.97;;;7.30;99.90;;;;;;5072173;28;20471;-57
2021/05/15 00:06:18;;;;;;;4.70;3.30;;;7.30;99.90;;;;;;5073054;28;20024;-55
2021/05/15 00:08:43;;;;;;;5.45;3.58;;;7.20;99.90;;;;;;5072783;28;20534;-60
2021/05/15 00:11:09;;;;;;;5.18;3.10;;;7.10;99.90;;;;;;5065869;28;20041;-56
2021/05/15 00:13:35;;;;;;;5.30;3.47;;;7.00;99.90;;;;;;5054820;28;20029;-57
2021/05/15 00:16:00;;;;;;;4.47;3.28;;;6.90;99.90;;;;;;5054805;28;20025;-57
2021/05/15 00:18:27;;;;;;;4.07;2.85;;;6.80;99.90;;;;;;5054048;28;20078;-55
2021/05/15 00:20:53;;;;;;;4.10;2.92;;;6.80;99.90;;;;;;5054611;28;20029;-56
2021/05/15 00:23:18;;;;;;;5.50;3.13;;;6.70;99.90;;;;;;5054706;28;20059;-57
2021/05/15 00:25:44;;;;;;;4.55;3.15;;;6.60;99.90;;;;;;5054501;28;20052;-53
2021/05/15 00:28:09;;;;;;;4.90;3.05;;;6.50;99.90;;;;;;5054644;28;20065;-57
2021/05/15 00:30:35;;;;;;;4.43;3.00;;;6.40;99.90;;;;;;5054504;28;20029;-55
2021/05/15 00:33:00;;;;;;;7.80;3.72;;;6.40;99.90;;;;;;5053571;28;20104;-57
2021/05/15 00:35:26;;;;;;;5.32;3.17;;;6.40;99.90;;;;;;5054448;28;20067;-56
2021/05/15 00:37:52;;;;;;;5.00;3.83;;;6.40;99.90;;;;;;5054238;28;20036;-57
2021/05/15 00:40:18;;;;;;;8.93;3.50;;;6.50;99.90;;;;;;5054149;28;20035;-59
2021/05/15 00:42:43;;;;;;;7.07;4.13;;;6.50;99.90;;;;;;5054397;28;20075;-56
2021/05/15 00:45:11;;;;;;;8.07;4.15;;;6.60;99.90;;;;;;5053058;28;20514;-57
2021/05/15 00:47:37;;;;;;;6.82;3.63;;;6.60;99.90;;;;;;5073081;28;20025;-54
2021/05/15 00:50:04;;;;;;;5.13;3.25;;;6.60;99.90;;;;;;5074128;28;20613;-56
2021/05/15 00:52:34;;;;;;;5.60;3.85;;;6.70;99.90;;;;;;5090953;28;20051;-57
2021/05/15 00:55:01;;;;;;;11.80;4.10;;;6.70;99.90;;;;;;5094107;28;20048;-57
2021/05/15 00:57:27;;;;;;;4.22;3.00;;;6.80;99.90;;;;;;5094051;28;20057;-56
2021/05/15 00:59:53;;;;;;;6.50;3.67;;;6.90;99.90;;;;;;5094115;28;20020;-57
2021/05/15 01:02:18;;;;;;;3.72;2.83;;;6.90;99.90;;;;;;5093158;28;20158;-58
2021/05/15 01:04:44;;;;;;;4.50;3.60;;;7.00;99.90;;;;;;5094228;28;20019;-57
2021/05/15 01:07:10;;;;;;;8.82;3.30;;;7.00;99.90;;;;;;5093882;28;20105;-56
2021/05/15 01:09:37;;;;;;;3.28;2.33;;;7.00;99.90;;;;;;5093671;28;20024;-56
2021/05/15 01:12:07;;;;;;;4.75;3.10;;;6.90;99.90;;;;;;5093854;28;20024;-56
2021/05/15 01:14:37;;;;;;;3.92;3.05;;;6.80;99.90;;;;;;5094059;28;20027;-56
2021/05/15 01:17:04;;;;;;;4.90;3.28;;;6.60;99.90;;;;;;5093299;28;20044;-57
2021/05/15 01:19:29;;;;;;;4.20;3.05;;;6.50;99.90;;;;;;5093757;28;20379;-56
2021/05/15 01:21:55;;;;;;;4.60;3.72;;;6.40;99.90;;;;;;5093671;28;20028;-54
2021/05/15 01:24:21;;;;;;;5.20;3.50;;;6.30;99.90;;;;;;5093828;28;20103;-57
2021/05/15 01:26:46;;;;;;;6.30;3.80;;;6.20;99.90;;;;;;5093615;28;20116;-58
2021/05/15 01:29:12;;;;;;;5.30;3.88;;;6.10;99.90;;;;;;5093661;28;20032;-55
2021/05/15 01:31:38;;;;;;;7.20;3.38;;;6.00;99.90;;;;;;5093682;28;20446;-58
2021/05/15 01:34:05;;;;;;;4.40;3.28;;;5.90;99.90;;;;;;5092661;28;20029;-55
2021/05/15 01:36:35;;;;;;;5.07;3.00;;;5.80;99.90;;;;;;5093365;28;20020;-57
2021/05/15 01:39:00;;;;;;;3.97;3.10;;;5.70;99.90;;;;;;5093557;28;20432;-55
2021/05/15 01:41:26;;;;;;;5.47;3.55;;;5.70;99.90;;;;;;5093340;28;20056;-55
2021/05/15 01:43:57;;;;;;;6.07;3.45;;;5.70;99.90;;;;;;5093449;28;20387;-56
2021/05/15 01:46:22;;;;;;;5.57;3.75;;;5.60;99.90;;;;;;5083457;28;20027;-56
2021/05/15 01:48:48;;;;;;;6.47;3.75;;;5.60;99.90;;;;;;5072140;28;20020;-56
2021/05/15 01:51:13;;;;;;;4.57;2.90;;;5.50;99.90;;;;;;5079107;28;20036;-57
2021/05/15 01:53:48;;;;;;;7.75;3.65;;;5.40;99.90;;;;;;5093072;28;20048;-55
2021/05/15 01:56:17;;;;;;;4.65;3.50;;;5.40;99.90;;;;;;5093152;28;20478;-53
2021/05/15 01:58:42;;;;;;;7.10;2.88;;;5.30;99.90;;;;;;5093322;28;20489;-57
2021/05/15 02:01:08;;;;;;;4.55;3.13;;;5.20;99.90;;;;;;5093243;28;20032;-57
2021/05/15 02:03:36;;;;;;;7.30;3.95;;;5.20;99.90;;;;;;5092002;28;20137;-57
2021/05/15 02:06:02;;;;;;;5.03;3.53;;;5.10;99.90;;;;;;5093125;28;20078;-57
2021/05/15 02:08:28;;;;;;;3.67;2.85;;;5.10;99.90;;;;;;5093094;28;20020;-57
2021/05/15 02:10:56;;;;;;;6.28;3.38;;;5.10;99.90;;;;;;5092921;28;20111;-57
2021/05/15 02:13:22;;;;;;;8.43;3.38;;;5.00;99.90;;;;;;5092968;28;20633;-55
2021/05/15 02:15:48;;;;;;;5.93;3.80;;;5.00;99.90;;;;;;5093041;28;20028;-57
2021/05/15 02:18:14;;;;;;;8.45;4.35;;;4.90;99.90;;;;;;5091829;28;20482;-56
2021/05/15 02:20:41;;;;;;;5.40;3.30;;;4.80;99.90;;;;;;5092230;28;20020;-54
2021/05/15 02:23:08;;;;;;;6.45;4.05;;;4.80;99.90;;;;;;5092652;28;20050;-57
2021/05/15 02:25:34;;;;;;;10.55;4.43;;;4.70;99.90;;;;;;5092941;28;20043;-58
2021/05/15 02:28:00;;;;;;;5.40;3.80;;;4.70;99.90;;;;;;5092613;28;20321;-57
2021/05/15 02:30:26;;;;;;;4.55;3.35;;;4.70;99.90;;;;;;5092839;28;20028;-58
2021/05/15 02:32:52;;;;;;;6.68;3.22;;;4.70;99.90;;;;;;5091760;28;20154;-53
2021/05/15 02:35:18;;;;;;;8.18;3.90;;;4.60;99.90;;;;;;5092730;28;20059;-57
2021/05/15 02:37:45;;;;;;;6.35;3.92;;;4.60;99.90;;;;;;5092648;28;20028;-52
2021/05/15 02:40:11;;;;;;;5.47;3.72;;;4.60;99.90;;;;;;5091326;28;20164;-57
2021/05/15 02:42:37;;;;;;;8.00;3.78;;;4.60;99.90;;;;;;5091318;28;20101;-56
2021/05/15 02:45:05;;;;;;;6.03;4.18;;;4.60;99.90;;;;;;5092661;28;20071;-57
2021/05/15 02:47:30;;;;;;;5.57;3.40;;;4.60;99.90;;;;;;5070910;28;20028;-55
2021/05/15 02:49:56;;;;;;;5.28;3.75;;;4.60;99.90;;;;;;5072492;28;20029;-54
2021/05/15 02:52:22;;;;;;;6.30;4.07;;;4.50;99.90;;;;;;5088114;28;20017;-57
2021/05/15 02:54:47;;;;;;;9.93;3.85;;;4.50;99.90;;;;;;5092411;28;20091;-57
2021/05/15 02:57:13;;;;;;;6.03;3.90;;;4.40;99.90;;;;;;5092312;28;20035;-54
2021/05/15 02:59:38;;;;;;;4.07;2.78;;;4.40;99.90;;;;;;5092619;28;20455;-55
2021/05/15 03:02:05;;;;;;;5.47;3.10;;;4.40;99.90;;;;;;5091490;28;20051;-58
2021/05/15 03:04:30;;;;;;;7.53;3.20;;;4.30;99.90;;;;;;5092642;28;20438;-57
2021/05/15 03:06:56;;;;;;;7.93;3.88;;;4.30;99.90;;;;;;5092577;28;20060;-57
2021/05/15 03:09:22;;;;;;;5.57;3.22;;;4.30;99.90;;;;;;5092346;28;20050;-54
2021/05/15 03:11:48;;;;;;;8.48;3.63;;;4.30;99.90;;;;;;5092490;28;20081;-57
2021/05/15 03:14:13;;;;;;;6.18;3.90;;;4.20;99.90;;;;;;5092169;28;20035;-55
2021/05/15 03:16:39;;;;;;;5.20;3.65;;;4.20;99.90;;;;;;5092294;28;20032;-53
2021/05/15 03:19:05;;;;;;;7.07;3.15;;;4.20;99.90;;;;;;5091376;28;20054;-54
2021/05/15 03:21:30;;;;;;;4.43;3.03;;;4.20;99.90;;;;;;5091151;28;20028;-55
2021/05/15 03:23:56;;;;;;;7.18;3.58;;;4.20;99.90;;;;;;5092329;28;20025;-57
2021/05/15 03:26:21;;;;;;;7.18;3.78;;;4.20;99.90;;;;;;5092253;28;20028;-54
2021/05/15 03:28:47;;;;;;;5.10;3.30;;;4.20;99.90;;;;;;5092083;28;20081;-57
2021/05/15 03:31:12;;;;;;;5.93;3.30;;;4.30;99.90;;;;;;5092058;28;20383;-51
2021/05/15 03:33:38;;;;;;;5.80;3.42;;;4.30;99.90;;;;;;5093540;28;20486;-53
2021/05/15 03:36:04;;;;;;;6.75;3.85;;;4.40;99.90;;;;;;5095907;28;20102;-54
2021/05/15 03:38:30;;;;;;;9.18;3.63;;;4.50;99.90;;;;;;5094456;28;20463;-55
2021/05/15 03:40:56;;;;;;;4.80;3.40;;;4.60;99.90;;;;;;5095939;28;20123;-53
2021/05/15 03:43:22;;;;;;;8.13;3.28;;;4.70;99.90;;;;;;5095527;28;20055;-55
2021/05/15 03:45:50;;;;;;;7.70;4.05;;;4.80;99.90;;;;;;5090604;28;20056;-54
2021/05/15 03:48:19;;;;;;;4.18;2.97;;;4.80;99.90;;;;;;5074411;28;20028;-57
2021/05/15 03:50:52;;;;;;;3.78;2.72;;;4.80;99.90;;;;;;5077750;28;20052;-55
2021/05/15 03:53:18;;;;;;;6.25;3.00;;;4.80;99.90;;;;;;5093325;28;20124;-56
2021/05/15 03:55:44;;;;;;;5.10;3.42;;;4.90;99.90;;;;;;5095607;28;20062;-56
2021/05/15 03:58:11;;;;;;;7.13;3.83;;;4.90;99.90;;;;;;5095231;28;20016;-57
2021/05/15 04:00:36;;;;;;;5.82;3.40;;;5.00;99.90;;;;;;5095263;28;20024;-52
2021/05/15 04:03:04;;;;;;;5.55;3.08;;;5.10;99.90;;;;;;5094367;28;20381;-54
2021/05/15 04:05:29;;;;;;;6.43;3.08;;;5.20;99.90;;;;;;5095443;28;20198;-57
2021/05/15 04:07:55;;;;;;;5.47;2.95;;;5.70;99.90;;;;;;5095228;28;20028;-56
2021/05/15 04:10:21;;;;;;;3.95;2.90;;;6.40;99.90;;;;;;5093203;28;20135;-56
2021/05/15 04:12:50;;;;;;;3.58;2.45;;;7.20;99.90;;;;;;5095188;28;20028;-55
2021/05/15 04:15:35;;;;;;;4.15;2.80;;;7.80;99.90;;;;;;5095041;28;20024;-54
2021/05/15 04:18:12;;;;;;;2.92;2.45;;;8.40;99.90;;;;;;5094203;28;20024;-56
2021/05/15 04:20:38;;;;;;;3.55;2.50;;;9.10;99.90;;;;;;5095066;28;20020;-55
2021/05/15 04:23:06;;;;;;;3.13;2.47;;;9.70;99.90;;;;;;5095029;28;20065;-55
2021/05/15 04:25:32;;;;;;;4.50;2.50;;;10.50;99.90;;;;;;5094904;28;20028;-53
2021/05/15 04:27:58;;;;;;;4.07;2.00;;;11.10;99.90;;;;;;5094923;28;20428;-51
2021/05/15 04:30:25;;;;;;;2.92;2.03;;;11.70;99.90;;;;;;5094659;28;20031;-54
2021/05/15 04:32:51;;;;;;;3.60;2.35;;;12.20;99.90;;;;;;5094046;28;20052;-55
2021/05/15 04:35:17;;;;;;;3.38;2.20;;;12.80;99.90;;;;;;5094698;28;20524;-55
2021/05/15 04:37:43;;;;;;;3.78;2.35;;;13.50;99.90;;;;;;5094609;28;20098;-57
2021/05/15 04:40:09;;;;;;;4.97;2.63;;;14.10;99.90;;;;;;5094551;28;20028;-55
2021/05/15 04:42:37;;;;;;;2.97;2.08;;;14.00;99.90;;;;;;5094757;28;20032;-56
2021/05/15 04:45:10;;;;;;;2.50;2.00;;;14.00;99.90;;;;;;5093760;28;20024;-57
2021/05/15 04:47:37;;;;;;;2.47;2.03;;;14.40;99.90;;;;;;5073375;28;20024;-54
2021/05/15 04:50:04;;;;;;;1.92;1.73;;;14.30;99.90;;;;;;5073920;28;20036;-56
2021/05/15 04:52:30;;;;;;;2.90;2.10;;;14.80;99.90;;;;;;5091003;28;20042;-54
2021/05/15 04:54:55;;;;;;;2.20;2.00;;;15.50;99.90;;;;;;5094048;28;20044;-54
2021/05/15 04:57:21;;;;;;;2.85;1.80;;;16.10;97.70;;;;;;5094279;28;20028;-57
2021/05/15 04:59:46;;;;;;;2.47;2.10;;;16.10;96.60;;;;;;5094080;28;20028;-55
2021/05/15 05:02:12;;;;;;;2.10;1.90;;;15.60;97.90;;;;;;5093275;28;20115;-57
2021/05/15 05:04:37;;;;;;;2.13;1.95;;;15.00;99.60;;;;;;5093968;28;20032;-56
2021/05/15 05:07:03;;;;;;;2.05;1.70;;;14.40;99.90;;;;;;5094057;28;20050;-56
2021/05/15 05:09:29;;;;;;;2.22;2.03;;;13.80;99.90;;;;;;5093940;28;20024;-55
2021/05/15 05:11:56;;;;;;;2.92;2.45;;;13.30;99.90;;;;;;5094067;28;20028;-55
2021/05/15 05:14:21;;;;;;;4.03;2.53;;;12.90;99.90;;;;;;5093897;28;20023;-56
2021/05/15 05:16:47;;;;;;;6.00;2.15;;;12.50;99.90;;;;;;5093859;28;20028;-57
2021/05/15 05:19:12;;;;;;;2.72;2.20;;;12.30;99.90;;;;;;5092873;28;20501;-56
2021/05/15 05:21:41;;;;;;;3.30;2.50;;;12.20;99.90;;;;;;5060630;28;20031;-54
2021/05/15 05:24:07;;;;;;;2.28;2.08;;;12.10;99.90;;;;;;5068739;28;20375;-55
2021/05/15 05:26:36;;;;;;;4.35;2.90;;;12.20;99.90;;;;;;5071640;28;20450;-57
2021/05/15 05:29:07;;;;;;;3.20;1.98;;;12.40;99.90;;;;;;5065169;28;20020;-57
2021/05/15 05:31:38;;;;;;;4.07;2.28;;;12.50;99.90;;;;;;5071508;28;20020;-57
2021/05/15 05:34:04;;;;;;;2.70;2.17;;;12.70;99.90;;;;;;5070382;28;20025;-55
2021/05/15 05:36:30;;;;;;;2.45;2.25;;;13.40;99.90;;;;;;5071120;28;20028;-56
2021/05/15 05:38:55;;;;;;;2.40;2.20;;;13.60;99.90;;;;;;5071508;28;20131;-55
2021/05/15 05:41:24;;;;;;;5.40;3.08;;;13.20;99.90;;;;;;5071356;28;20044;-54
2021/05/15 05:43:49;;;;;;;4.57;2.67;;;12.80;99.90;;;;;;5071353;28;20032;-56
2021/05/15 05:46:15;;;;;;;3.00;2.20;;;12.70;99.90;;;;;;5068988;28;20032;-58
2021/05/15 05:48:40;;;;;;;3.00;2.20;;;12.90;99.90;;;;;;5068279;28;20108;-57
2021/05/15 05:51:06;;;;;;;3.80;2.47;;;13.00;99.90;;;;;;5076194;28;20469;-56
2021/05/15 05:53:31;;;;;;;3.63;2.60;;;12.80;99.90;;;;;;5071091;28;20036;-57
2021/05/15 05:55:57;;;;;;;4.40;2.30;;;12.70;99.90;;;;;;5061846;28;20374;-57
2021/05/15 05:58:23;;;;;;;3.83;2.60;;;12.60;99.90;;;;;;5069376;28;20087;-57
2021/05/15 06:00:48;;;;;;;4.15;2.67;;;12.60;99.90;;;;;;5070776;28;20353;-58
2021/05/15 06:03:14;;;;;;;4.30;2.38;;;12.60;99.90;;;;;;5069915;28;20024;-58
2021/05/15 06:05:39;;;;;;;2.50;1.73;;;12.80;99.90;;;;;;5070790;28;20557;-58
2021/05/15 06:08:09;;;;;;;3.42;2.10;;;13.70;99.90;;;;;;5070865;28;20040;-57
2021/05/15 06:10:36;;;;;;;4.80;1.75;;;15.90;97.00;;;;;;5070604;28;20348;-57
2021/05/15 06:13:03;;;;;;;1.40;1.30;;;18.10;91.90;;;;;;5070825;28;20017;-58
2021/05/15 06:15:28;;;;;;;2.90;1.77;;;20.00;85.30;;;;;;5070904;28;20533;-57
2021/05/15 06:17:54;;;;;;;1.40;1.30;;;21.00;79.40;;;;;;5069239;28;20032;-57
2021/05/15 06:20:20;;;;;;;4.43;1.80;;;21.60;75.10;;;;;;5069876;28;20036;-58
2021/05/15 06:22:45;;;;;;;4.38;1.88;;;22.10;72.00;;;;;;5070905;28;20032;-57
2021/05/15 06:25:11;;;;;;;2.20;2.00;;;22.50;68.50;;;;;;5070934;28;20119;-58
2021/05/15 06:27:37;;;;;;;2.17;1.73;;;23.20;65.20;;;;;;5071696;28;20133;-58
2021/05/15 06:30:04;;;;;;;6.68;2.40;;;23.50;65.60;;;;;;5070648;28;20037;-58
2021/05/15 06:32:29;;;;;;;14.23;2.97;;;22.40;64.50;;;;;;5069736;28;20025;-58
2021/05/15 06:34:55;;;;;;;2.70;1.73;;;23.10;66.20;;;;;;5070672;28;20483;-57
2021/05/15 06:37:20;;;;;;;3.20;2.28;;;24.00;65.40;;;;;;5070683;28;20056;-56
2021/05/15 06:39:46;;;;;;;1.92;1.48;;;24.90;62.40;;;;;;5070813;28;20039;-58
2021/05/15 06:42:12;;;;;;;5.32;3.03;;;25.80;62.40;;;;;;5070870;28;20107;-56
2021/05/15 06:44:37;;;;;;;3.15;2.60;;;26.70;59.70;;;;;;5070565;28;20544;-57
2021/05/15 06:47:03;;;;;;;4.43;2.22;;;26.90;58.50;;;;;;5069433;28;20075;-57
2021/05/15 06:49:29;;;;;;;3.33;2.13;;;27.60;59.40;;;;;;5070374;28;20028;-57
2021/05/15 06:51:54;;;;;;;2.60;2.40;;;28.30;58.20;;;;;;5082652;28;20437;-56
2021/05/15 06:54:20;;;;;;;3.38;1.98;;;28.90;57.40;;;;;;5071266;28;20052;-59
2021/05/15 06:56:45;;;;;;;3.17;2.67;;;28.00;57.70;;;;;;5070658;28;20027;-56
2021/05/15 06:59:11;;;;;;;3.83;2.35;;;27.60;58.10;;;;;;5066880;28;20060;-58
2021/05/15 07:01:36;;;;;;;5.57;3.42;;;27.60;57.40;;;;;;5069853;28;20024;-56
2021/05/15 07:04:02;;;;;;;3.05;2.63;;;27.60;55.60;;;;;;5068782;28;20074;-58
2021/05/15 07:06:27;;;;;;;3.47;2.20;;;27.80;54.30;;;;;;5070596;28;20036;-58
2021/05/15 07:08:53;;;;;;;4.60;2.78;;;27.00;55.40;;;;;;5073988;28;20027;-59
2021/05/15 07:11:18;;;;;;;4.05;3.50;;;26.40;56.00;;;;;;5074158;28;20029;-58
2021/05/15 07:13:44;;;;;;;2.97;2.22;;;25.70;55.50;;;;;;5073790;28;20032;-58
2021/05/15 07:16:09;;;;;;;2.53;2.33;;;26.10;55.90;;;;;;5066398;28;20021;-59
2021/05/15 07:18:35;;;;;;;2.20;2.00;;;27.60;55.00;;;;;;5072484;28;20017;-58
2021/05/15 07:21:01;;;;;;;3.25;1.95;;;28.60;52.70;;;;;;5073707;28;20020;-58
2021/05/15 07:23:26;;;;;;;3.92;1.80;;;29.40;52.00;;;;;;5073644;28;20036;-58
2021/05/15 07:25:52;;;;;;;1.67;1.58;;;30.10;50.80;;;;;;5073847;28;20028;-58
2021/05/15 07:28:17;;;;;;;2.60;2.00;;;30.70;50.70;;;;;;5069922;28;20499;-59
2021/05/15 07:30:43;;;;;;;1.52;1.42;;;31.30;49.50;;;;;;5073558;28;20184;-56
2021/05/15 07:33:11;;;;;;;2.25;1.50;;;31.70;48.90;;;;;;5072357;28;20381;-59
2021/05/15 07:35:37;;;;;;;1.35;1.25;;;32.50;48.30;;;;;;5073540;28;20024;-59
2021/05/15 07:38:02;;;;;;;2.80;1.73;;;32.90;47.50;;;;;;5073525;28;20043;-58
2021/05/15 07:40:28;;;;;;;1.60;1.45;;;33.10;47.40;;;;;;5073610;28;20035;-59
2021/05/15 07:42:53;;;;;;;3.70;1.70;;;32.70;47.30;;;;;;5073669;28;20751;-59
2021/05/15 07:45:19;;;;;;;1.38;1.27;;;33.00;47.20;;;;;;5073532;28;20086;-59
2021/05/15 07:47:44;;;;;;;2.75;1.52;;;33.00;46.50;;;;;;5072376;28;20059;-57
2021/05/15 07:50:10;;;;;;;1.30;1.20;;;32.40;46.40;;;;;;5073309;28;20032;-59
2021/05/15 07:52:36;;;;;;;2.35;1.58;;;31.80;46.90;;;;;;5074878;28;20112;-58
2021/05/15 07:55:04;;;;;;;6.13;2.22;;;31.30;46.80;;;;;;5073399;28;20033;-59
2021/05/15 07:57:29;;;;;;;3.28;1.65;;;30.90;45.00;;;;;;5073265;28;20024;-58
2021/05/15 07:59:55;;;;;;;4.18;1.80;;;31.20;45.60;;;;;;5073180;28;20395;-59
2021/05/15 08:02:21;;;;;;;2.20;1.88;;;32.00;44.50;;;;;;5071965;28;20431;-59
2021/05/15 08:04:47;;;;;;;2.13;1.92;;;32.30;42.80;;;;;;5073228;28;20035;-58
2021/05/15 08:07:12;;;;;;;3.65;2.53;;;32.60;43.10;;;;;;5073158;28;20024;-58
2021/05/15 08:09:38;;;;;;;2.25;1.83;;;33.10;41.80;;;;;;5073001;28;20033;-57
2021/05/15 08:12:04;;;;;;;2.22;1.80;;;33.30;42.10;;;;;;5072857;28;20491;-57
2021/05/15 08:14:29;;;;;;;2.22;1.48;;;33.80;42.70;;;;;;5073212;28;20061;-58
2021/05/15 08:16:55;;;;;;;2.03;1.65;;;32.80;42.40;;;;;;5071808;28;20107;-59
2021/05/15 08:19:20;;;;;;;2.50;2.03;;;33.00;42.10;;;;;;5071753;28;20020;-59
2021/05/15 08:21:46;;;;;;;1.48;1.35;;;33.30;40.90;;;;;;5072624;28;20029;-57
2021/05/15 08:24:11;;;;;;;1.40;1.30;;;33.10;40.80;;;;;;5073009;28;20021;-58
2021/05/15 08:26:39;;;;;;;2.03;1.83;;;32.30;41.20;;;;;;5072561;28;20029;-58
2021/05/15 08:29:07;;;;;;;1.70;1.60;;;32.90;41.20;;;;;;5068829;28;20028;-59
2021/05/15 08:31:33;;;;;;;8.48;2.40;;;32.90;40.10;;;;;;5072442;28;20052;-59
2021/05/15 08:33:58;;;;;;;2.47;2.03;;;33.30;38.70;;;;;;5071920;28;20427;-59
2021/05/15 08:36:24;;;;;;;1.30;1.20;;;33.00;38.50;;;;;;5072368;28;20024;-59
2021/05/15 08:38:52;;;;;;;2.10;1.33;;;32.30;39.40;;;;;;5072679;28;20051;-58
2021/05/15 08:41:17;;;;;;;1.77;1.58;;;31.30;40.20;;;;;;5072526;28;20062;-59
2021/05/15 08:43:44;;;;;;;1.42;1.00;;;31.80;40.40;;;;;;5072645;28;20475;-59
2021/05/15 08:46:13;;;;;;;1.40;1.30;;;32.60;40.00;;;;;;5072375;28;20360;-58
2021/05/15 08:48:39;;;;;;;1.88;1.33;;;33.40;39.20;;;;;;5071260;28;20032;-59
2021/05/15 08:51:05;;;;;;;1.40;1.25;;;34.00;39.10;;;;;;5074209;28;20044;-59
2021/05/15 08:53:32;;;;;;;1.20;1.10;;;33.80;39.20;;;;;;5072300;28;20050;-59
2021/05/15 08:55:59;;;;;;;2.30;1.30;;;34.40;39.00;;;;;;5072079;28;20028;-59
2021/05/15 08:58:24;;;;;;;3.45;1.45;;;34.90;38.60;;;;;;5072371;28;20472;-59
2021/05/15 09:00:51;;;;;;;2.15;1.58;;;35.20;38.40;;;;;;5071815;28;20056;-59
2021/05/15 09:03:18;;;;;;;1.85;1.42;;;35.30;37.80;;;;;;5071322;28;20052;-59
2021/05/15 09:05:47;;;;;;;1.90;1.30;;;35.00;37.90;;;;;;5071551;28;20486;-59
2021/05/15 09:08:14;;;;;;;4.25;2.38;;;35.20;38.00;;;;;;5072163;28;20070;-57
2021/05/15 09:10:43;;;;;;;1.75;1.65;;;35.40;36.90;;;;;;5071676;28;20024;-59
2021/05/15 09:13:15;;;;;;;1.75;1.40;;;34.70;36.70;;;;;;5071966;28;20033;-59
2021/05/15 09:15:47;;;;;;;1.10;1.00;;;33.70;37.70;;;;;;5071671;28;20387;-59
2021/05/15 09:18:26;;;;;;;3.13;1.75;;;32.80;38.60;;;;;;5071086;28;20472;-58
2021/05/15 09:20:55;;;;;;;1.75;1.50;;;32.40;37.90;;;;;;5071526;28;20021;-58
2021/05/15 09:23:26;;;;;;;2.42;1.52;;;31.30;39.40;;;;;;5072533;28;20467;-59
2021/05/15 09:26:05;;;;;;;3.25;2.40;;;31.70;39.50;;;;;;5072153;28;20047;-59
2021/05/15 09:28:55;;;;;;;7.40;3.13;;;31.50;38.40;;;;;;5068376;28;20020;-59
2021/05/15 09:31:31;;;;;;;2.38;2.00;;;30.60;39.40;;;;;;5071941;28;20021;-59
2021/05/15 09:34:03;;;;;;;2.53;1.60;;;29.20;41.90;;;;;;5070012;28;20024;-59
2021/05/15 09:36:37;;;;;;;3.10;1.63;;;28.10;42.50;;;;;;5071924;28;20169;-59
2021/05/15 09:39:21;;;;;;;1.92;1.48;;;27.90;43.10;;;;;;5072196;28;20038;-59
2021/05/15 09:41:49;;;;;;;3.08;1.88;;;27.50;43.50;;;;;;5071958;28;20017;-58
2021/05/15 09:44:40;;;;;;;2.28;1.50;;;27.20;43.70;;;;;;5072241;28;20107;-57
2021/05/15 09:47:06;;;;;;;8.52;1.98;;;27.10;44.40;;;;;;5071158;28;20093;-58
2021/05/15 09:49:35;;;;;;;3.42;2.15;;;27.30;43.60;;;;;;5071979;28;20029;-59
2021/05/15 09:52:08;;;;;;;2.38;1.70;;;27.30;43.70;;;;;;5074237;28;20052;-58
2021/05/15 09:54:40;;;;;;;2.03;1.65;;;26.90;44.20;;;;;;5071935;28;20120;-59
2021/05/15 09:57:18;;;;;;;2.50;1.90;;;26.60;44.60;;;;;;5071811;28;20028;-59
2021/05/15 09:59:45;;;;;;;4.50;1.83;;;26.30;45.20;;;;;;5071913;28;20077;-59
2021/05/15 10:02:13;;;;;;;1.90;1.70;;;26.00;45.30;;;;;;5070859;28;20036;-59
2021/05/15 10:04:40;;;;;;;2.13;1.92;;;25.70;45.50;;;;;;5071929;28;20029;-57
2021/05/15 10:07:17;;;;;;;3.25;2.20;;;25.50;45.70;;;;;;5071432;28;20027;-58
2021/05/15 10:09:43;;;;;;;1.98;1.77;;;25.50;46.10;;;;;;5071655;28;20025;-59
2021/05/15 10:12:09;;;;;;;3.78;3.08;;;25.60;46.20;;;;;;5071574;28;20387;-59
2021/05/15 10:14:35;;;;;;;3.55;2.58;;;25.60;45.70;;;;;;5071818;28;20100;-58
2021/05/15 10:17:01;;;;;;;2.08;1.88;;;25.10;45.40;;;;;;5070455;28;20400;-58
2021/05/15 10:19:30;;;;;;;1.90;1.70;;;24.80;46.40;;;;;;5071891;28;20031;-56
2021/05/15 10:21:57;;;;;;;2.65;2.03;;;24.60;46.60;;;;;;5071405;28;20031;-59
2021/05/15 10:24:26;;;;;;;2.28;2.00;;;24.60;46.90;;;;;;5071650;28;20079;-56
2021/05/15 10:27:12;;;;;;;2.17;1.90;;;24.60;47.10;;;;;;5071428;28;20031;-58
2021/05/15 10:29:54;;;;;;;2.30;1.83;;;24.60;47.60;;;;;;5067734;28;20027;-59
2021/05/15 10:32:26;;;;;;;2.03;1.85;;;24.60;47.20;;;;;;5070551;28;20044;-58
2021/05/15 10:35:01;;;;;;;2.20;2.00;;;24.50;47.70;;;;;;5071380;28;20029;-58
2021/05/15 10:37:31;;;;;;;2.03;1.90;;;24.20;48.40;;;;;;5071313;28;20233;-58
2021/05/15 10:39:56;;;;;;;2.75;2.33;;;24.00;48.30;;;;;;5071404;28;20029;-59
2021/05/15 10:42:32;;;;;;;2.45;1.75;;;23.80;48.50;;;;;;5073244;28;20036;-57
2021/05/15 10:45:00;;;;;;;1.40;1.30;;;23.50;49.60;;;;;;5075392;28;20495;-58
2021/05/15 10:47:26;;;;;;;2.22;1.90;;;23.30;49.60;;;;;;5074592;28;20028;-56
2021/05/15 10:50:11;;;;;;;10.13;1.88;;;23.10;49.90;;;;;;5075332;28;20020;-58
2021/05/15 10:52:49;;;;;;;1.60;1.50;;;22.90;50.10;;;;;;5075920;28;20360;-59
2021/05/15 10:55:33;;;;;;;1.88;1.20;;;22.90;50.70;;;;;;5074554;28;20041;-59
2021/05/15 10:58:09;;;;;;;1.73;1.35;;;23.10;50.60;;;;;;5075104;28;20296;-58
2021/05/15 11:00:34;;;;;;;2.70;1.48;;;23.30;50.50;;;;;;5075178;28;20025;-57
2021/05/15 11:03:00;;;;;;;1.50;1.40;;;23.50;49.40;;;;;;5074065;28;20479;-58
2021/05/15 11:05:26;;;;;;;1.60;1.33;;;23.60;49.10;;;;;;5074993;28;20029;-59
2021/05/15 11:07:51;;;;;;;1.10;1.10;;;23.70;48.90;;;;;;5074802;28;20495;-58
2021/05/15 11:10:19;;;;;;;1.40;1.30;;;23.80;48.60;;;;;;5074669;28;20032;-58
2021/05/15 11:12:47;;;;;;;1.85;1.35;;;23.90;48.70;;;;;;5074949;28;20027;-59
2021/05/15 11:15:15;;;;;;;1.52;1.02;;;23.80;48.40;;;;;;5074732;28;20025;-57
2021/05/15 11:17:41;;;;;;;1.63;0.80;;;23.70;48.60;;;;;;5074059;28;20032;-58
2021/05/15 11:20:17;;;;;;;2.05;0.95;;;23.80;48.70;;;;;;5074732;28;20514;-58
2021/05/15 11:22:47;;;;;;;2.33;1.02;;;23.90;47.90;;;;;;5074738;28;20480;-58
2021/05/15 11:25:13;;;;;;;3.33;0.90;;;23.60;46.70;;;;;;5074788;28;20464;-58
2021/05/15 11:27:49;;;;;;;2.58;0.80;;;23.20;47.90;;;;;;5073762;28;20025;-58
2021/05/15 11:30:20;;;;;;;0.70;0.70;;;23.00;48.70;;;;;;5072909;28;20158;-58
2021/05/15 11:33:10;;;;;;;0.68;0.68;;;22.90;48.50;;;;;;5073645;28;20033;-58
2021/05/15 11:35:42;;;;;;;1.00;0.85;;;22.90;49.00;;;;;;5074782;28;20069;-56
2021/05/15 11:38:25;;;;;;;2.03;0.70;;;22.80;48.80;;;;;;5074179;28;20162;-58
2021/05/15 11:41:01;;;;;;;1.05;0.70;;;22.70;49.40;;;;;;5074618;28;20462;-59
2021/05/15 11:43:36;;;;;;;1.95;0.40;;;22.80;48.80;;;;;;5074177;28;20044;-58
2021/05/15 11:46:03;;;;;;;1.77;0.77;;;23.00;48.50;;;;;;5074472;28;20099;-59
2021/05/15 11:48:31;;;;;;;0.80;0.52;;;23.00;48.40;;;;;;5073404;28;20033;-58
2021/05/15 11:51:09;;;;;;;1.60;0.50;;;22.90;48.40;;;;;;5077064;28;20028;-58
2021/05/15 11:53:37;;;;;;;1.30;0.60;;;22.90;48.70;;;;;;5073921;28;20041;-56
2021/05/15 11:56:17;;;;;;;0.80;0.45;;;22.80;48.90;;;;;;5074153;28;20028;-58
2021/05/15 11:58:50;;;;;;;0.40;0.40;;;22.70;49.10;;;;;;5074210;28;20032;-59
2021/05/15 12:01:28;;;;;;;0.52;0.50;;;22.50;49.50;;;;;;5074033;28;20073;-58
2021/05/15 12:04:08;;;;;;;0.70;0.70;;;22.30;50.00;;;;;;5072962;28;20025;-58
2021/05/15 12:06:34;;;;;;;0.35;0.35;;;22.30;51.00;;;;;;5073992;28;20028;-58
2021/05/15 12:09:16;;;;;;;0.80;0.60;;;22.40;50.50;;;;;;5073709;28;20024;-59
2021/05/15 12:11:44;;;;;;;0.75;0.40;;;22.60;50.40;;;;;;5074147;28;20050;-59
2021/05/15 12:14:11;;;;;;;0.52;0.40;;;22.70;50.10;;;;;;5072460;28;20111;-58
2021/05/15 12:16:38;;;;;;;0.85;0.50;;;22.80;50.00;;;;;;5073966;28;20096;-58
2021/05/15 12:19:05;;;;;;;0.95;0.50;;;22.80;49.80;;;;;;5072581;28;20383;-58
2021/05/15 12:21:31;;;;;;;0.40;0.40;;;22.60;49.90;;;;;;5073799;28;20028;-56
2021/05/15 12:24:05;;;;;;;0.88;0.40;;;22.50;50.20;;;;;;5060688;28;20134;-59
2021/05/15 12:26:31;;;;;;;1.15;0.30;;;22.40;50.20;;;;;;5073609;28;20382;-58
2021/05/15 12:29:03;;;;;;;1.98;0.45;;;22.40;50.50;;;;;;5069356;28;20023;-58
2021/05/15 12:31:32;;;;;;;4.13;0.70;;;22.40;50.40;;;;;;5073357;28;20038;-58
2021/05/15 12:33:59;;;;;;;0.82;0.45;;;22.60;50.70;;;;;;5072557;28;20112;-58
2021/05/15 12:36:31;;;;;;;0.30;0.30;;;22.70;50.30;;;;;;5073460;28;20035;-58
2021/05/15 12:38:57;;;;;;;0.93;0.70;;;22.80;49.90;;;;;;5073425;28;20097;-58
2021/05/15 12:41:33;;;;;;;0.63;0.43;;;22.70;49.80;;;;;;5073218;28;20031;-56
2021/05/15 12:44:03;;;;;;;;;;;22.90;49.70;;;;;;5073572;28;20021;-57
2021/05/15 12:46:32;;;;;;;1.33;0.57;;;22.90;49.80;;;;;;5073412;28;20383;-59
2021/05/15 12:49:00;;;;;;;1.55;0.75;;;23.00;49.60;;;;;;5072203;28;20074;-59
2021/05/15 12:51:43;;;;;;;0.70;0.68;;;23.00;49.70;;;;;;5076319;28;20025;-58
2021/05/15 12:54:14;;;;;;;1.02;0.50;;;22.90;48.80;;;;;;5072704;28;20136;-58